Time;durP1;ratioP1;P1;durP2;ratioP2;P2;SDS_P1;SDS_P2;PMS_P1;PMS_P2;Temp;Humidity;BMP_temperature;BMP_pressure;BME280_temperature;BME280_humidity;BME280_pressure;Samples;Min_cycle;Max_cycle;Signal;HPM_P1;HPM_P2
2023/02/10 00:03:39;;;;;;;20.48;16.85;;;;;;;-3.44;76.31;101649.34;10564381;28;20068;-79
2023/02/10 00:08:42;;;;;;;17.17;15.52;;;;;;;-3.12;75.66;101648.34;10566172;28;20048;-78
2023/02/10 00:13:44;;;;;;;16.42;14.88;;;;;;;-3.36;76.41;101645.47;10567617;28;20440;-79
2023/02/10 00:18:46;;;;;;;20.65;16.15;;;;;;;-3.37;75.33;101630.81;10563670;28;20070;-80
2023/02/10 00:23:48;;;;;;;22.00;16.02;;;;;;;-3.50;75.65;101642.97;10564358;28;20116;-77
2023/02/10 00:28:51;;;;;;;17.75;15.48;;;;;;;-3.74;75.86;101643.50;10566420;28;20481;-80
2023/02/10 00:33:53;;;;;;;21.45;16.38;;;;;;;-3.87;76.75;101647.13;10547039;28;20112;-79
2023/02/10 00:38:55;;;;;;;20.02;16.75;;;;;;;-4.03;78.32;101651.38;10548857;28;20134;-79
2023/02/10 00:43:57;;;;;;;21.60;15.82;;;;;;;-4.07;78.17;101652.91;10565110;28;20048;-79
2023/02/10 00:48:58;;;;;;;22.73;15.70;;;;;;;-4.08;78.30;101664.84;10568017;22;20044;-82
2023/02/10 00:54:00;;;;;;;18.73;16.20;;;;;;;-4.01;78.57;101665.19;10533048;28;20128;-82
2023/02/10 00:59:02;;;;;;;18.58;16.23;;;;;;;-3.96;78.31;101663.75;10548811;28;20172;-81
2023/02/10 01:04:03;;;;;;;17.45;15.60;;;;;;;-4.02;79.39;101663.44;10515438;28;20089;-82
2023/02/10 01:09:05;;;;;;;17.10;15.40;;;;;;;-4.10;80.21;101656.19;10533186;28;20071;-82
2023/02/10 01:14:07;;;;;;;19.00;15.65;;;;;;;-4.01;78.89;101653.22;10549762;28;20546;-81
2023/02/10 01:19:09;;;;;;;20.35;15.73;;;;;;;-3.99;78.48;101655.88;10532880;28;20086;-80
2023/02/10 01:24:11;;;;;;;17.63;14.57;;;;;;;-3.90;78.15;101662.34;10532018;28;20051;-82
2023/02/10 01:29:12;;;;;;;13.93;12.23;;;;;;;-3.76;76.74;101672.47;10530443;28;20052;-83
2023/02/10 01:34:14;;;;;;;17.13;12.80;;;;;;;-3.23;73.21;101662.38;10530704;28;20075;-83
2023/02/10 01:39:16;;;;;;;13.23;11.32;;;;;;;-2.70;69.74;101648.69;10531387;28;20054;-82
2023/02/10 01:44:20;;;;;;;13.27;12.02;;;;;;;-2.49;68.72;101661.66;10530608;28;20048;-81
2023/02/10 01:49:25;;;;;;;13.18;11.20;;;;;;;-2.44;68.51;101664.47;10549084;28;20542;-83
2023/02/10 01:54:39;;;;;;;13.10;11.75;;;;;;;-2.32;67.20;101668.50;10530298;28;20044;-83
2023/02/10 01:59:42;;;;;;;13.98;12.57;;;;;;;-2.39;67.46;101666.47;10530422;28;20051;-81
2023/02/10 02:04:50;;;;;;;16.60;12.50;;;;;;;-2.03;65.25;101661.22;10554079;28;20048;-80
2023/02/10 02:09:53;;;;;;;16.38;11.52;;;;;;;-1.42;62.76;101673.34;10538635;28;20044;-81
2023/02/10 02:15:25;;;;;;;14.75;11.45;;;;;;;-1.59;62.76;101672.63;10550547;28;20042;-80
2023/02/10 02:20:48;;;;;;;14.70;13.20;;;;;;;-1.72;63.24;101678.94;10588447;28;20071;-81
2023/02/10 02:25:58;;;;;;;14.13;12.00;;;;;;;-1.78;63.43;101676.06;10538992;28;20239;-83
2023/02/10 02:31:12;;;;;;;15.00;13.40;;;;;;;-1.75;63.38;101671.06;10537090;28;20042;-82
2023/02/10 02:36:29;;;;;;;16.08;12.70;;;;;;;-1.55;62.69;101666.75;10537193;28;20127;-81
2023/02/10 02:41:32;;;;;;;14.30;12.90;;;;;;;-1.86;63.48;101674.84;10555522;28;20484;-81
2023/02/10 02:46:55;;;;;;;15.85;13.38;;;;;;;-1.78;64.34;101683.81;10543202;28;20497;-81
2023/02/10 02:52:07;;;;;;;13.32;11.95;;;;;;;-1.92;64.34;101672.88;10542870;28;20101;-81
2023/02/10 02:57:32;;;;;;;15.68;14.07;;;;;;;-1.97;65.21;101674.38;10538991;28;20067;-81
2023/02/10 03:02:41;;;;;;;11.30;10.20;;;;;;;-1.61;63.62;101667.38;10537212;28;20584;-83
2023/02/10 03:07:42;;;;;;;16.48;13.65;;;;;;;-1.47;63.13;101675.72;10537869;28;20048;-83
2023/02/10 03:12:44;;;;;;;16.15;13.85;;;;;;;-1.01;61.31;101669.94;10535566;28;20409;-83
2023/02/10 03:17:46;;;;;;;18.92;13.27;;;;;;;-0.81;59.89;101665.56;10556672;28;20040;-81
2023/02/10 03:22:48;;;;;;;19.70;13.63;;;;;;;-0.83;60.82;101664.63;10554460;28;20048;-82
2023/02/10 03:27:49;;;;;;;16.17;13.43;;;;;;;-0.88;60.84;101673.91;10538705;28;20040;-82
2023/02/10 03:32:53;;;;;;;17.33;15.23;;;;;;;-0.84;60.79;101670.59;10553921;28;20040;-82
2023/02/10 03:37:54;;;;;;;16.35;14.68;;;;;;;-0.80;60.35;101670.81;10577931;28;20038;-81
2023/02/10 03:42:56;;;;;;;15.60;14.00;;;;;;;-0.64;59.82;101663.66;10561061;28;20048;-82
2023/02/10 03:47:58;;;;;;;17.10;14.23;;;;;;;-0.65;59.86;101662.78;10581369;28;20090;-82
2023/02/10 03:53:00;;;;;;;15.32;13.73;;;;;;;-0.57;59.36;101658.81;10581073;28;20088;-82
2023/02/10 03:58:03;;;;;;;21.65;14.40;;;;;;;-0.53;58.85;101663.28;10575190;28;20044;-81
2023/02/10 04:03:05;;;;;;;16.08;14.23;;;;;;;-0.71;60.78;101684.88;10539748;28;20039;-81
2023/02/10 04:08:06;;;;;;;16.70;14.75;;;;;;;-0.62;61.46;101693.91;10555320;28;20036;-79
2023/02/10 04:13:08;;;;;;;15.68;14.10;;;;;;;-0.86;62.51;101704.09;10535601;28;20052;-80
2023/02/10 04:18:10;;;;;;;18.10;15.15;;;;;;;-0.88;63.22;101721.25;10536656;28;20044;-82
2023/02/10 04:23:11;;;;;;;16.52;14.82;;;;;;;-0.91;64.31;101726.28;10537025;28;20052;-81
2023/02/10 04:28:13;;;;;;;16.88;15.27;;;;;;;-1.06;64.72;101717.91;10533176;28;20421;-81
2023/02/10 04:33:15;;;;;;;15.75;14.00;;;;;;;-0.79;64.08;101729.38;10552653;28;20489;-82
2023/02/10 04:38:17;;;;;;;24.33;15.90;;;;;;;-0.67;63.22;101731.56;10552242;28;20044;-82
2023/02/10 04:43:18;;;;;;;28.75;16.80;;;;;;;-0.57;63.46;101744.06;10533639;28;20108;-82
2023/02/10 04:48:21;;;;;;;18.83;16.98;;;;;;;-0.68;65.97;101749.59;10536229;28;20440;-83
2023/02/10 04:53:23;;;;;;;17.75;16.05;;;;;;;-0.69;66.71;101758.16;10520979;28;20135;-81
2023/02/10 04:58:24;;;;;;;20.08;17.95;;;;;;;-0.76;69.63;101759.59;10551018;28;20103;-80
2023/02/10 05:03:26;;;;;;;28.45;20.83;;;;;;;-0.99;76.85;101750.88;10534060;28;20048;-81
2023/02/10 05:08:27;;;;;;;25.40;20.42;;;;;;;-1.02;79.77;101748.16;10533366;28;20039;-81
2023/02/10 05:13:29;;;;;;;22.48;19.67;;;;;;;-1.22;77.20;101754.19;10532030;28;20089;-81
2023/02/10 05:18:32;;;;;;;29.45;20.35;;;;;;;-1.21;77.18;101755.94;10533224;28;20505;-81
2023/02/10 05:23:34;;;;;;;26.63;20.42;;;;;;;-0.81;74.25;101768.84;10551611;28;20431;-81
2023/02/10 05:28:36;;;;;;;24.33;21.38;;;;;;;-0.88;75.96;101770.31;10552490;28;20062;-81
2023/02/10 05:33:38;;;;;;;23.02;20.55;;;;;;;-0.93;76.13;101769.22;10535720;28;20098;-80
2023/02/10 05:39:22;;;;;;;31.35;20.95;;;;;;;-0.96;76.04;101768.22;10537372;28;20040;-83
2023/02/10 05:44:01;;;;;;;35.33;21.58;;;;;;;-0.77;75.28;101766.47;10535958;28;20048;-83
2023/02/10 05:49:03;;;;;;;30.42;23.17;;;;;;;-0.81;75.39;101769.72;10535198;28;20082;-83
2023/02/10 05:54:04;;;;;;;29.73;22.67;;;;;;;-0.66;75.13;101774.66;10519137;28;20047;-81
2023/02/10 05:59:07;;;;;;;35.03;24.45;;;;;;;-0.70;77.13;101785.69;10551490;28;20044;-82
2023/02/10 06:04:08;;;;;;;33.78;24.90;;;;;;;-0.58;77.81;101788.75;10553729;28;20383;-81
2023/02/10 06:09:10;;;;;;;34.65;24.40;;;;;;;-0.57;78.69;101800.00;10553940;28;20040;-82
2023/02/10 06:14:12;;;;;;;33.45;25.77;;;;;;;-0.66;80.39;101817.69;10539531;28;20040;-81
2023/02/10 06:19:14;;;;;;;41.08;27.58;;;;;;;-0.74;81.30;101816.47;10534511;28;20383;-79
2023/02/10 06:24:16;;;;;;;43.00;28.42;;;;;;;-0.81;82.07;101817.91;10538185;28;20039;-79
2023/02/10 06:29:18;;;;;;;39.45;27.52;;;;;;;-0.90;83.65;101822.66;10561728;28;20079;-81
2023/02/10 06:34:19;;;;;;;43.67;27.98;;;;;;;-0.74;83.26;101804.44;10562653;28;20037;-81
2023/02/10 06:39:21;;;;;;;38.20;26.73;;;;;;;-0.54;82.18;101829.38;10543449;28;20047;-82
2023/02/10 06:44:23;;;;;;;41.80;26.58;;;;;;;-0.51;82.52;101824.38;10521828;28;20055;-82
2023/02/10 06:49:24;;;;;;;40.47;27.00;;;;;;;-0.38;82.44;101841.25;10627778;22;20123;-85
2023/02/10 06:54:26;;;;;;;53.05;29.73;;;;;;;-0.30;81.57;101841.59;10631026;27;20065;-83
2023/02/10 06:59:28;;;;;;;49.20;28.55;;;;;;;-0.39;81.99;101855.00;10633282;27;20051;-84
2023/02/10 07:04:31;;;;;;;45.70;28.35;;;;;;;-0.29;81.45;101866.59;10646300;27;20023;-84
2023/02/10 07:09:33;;;;;;;36.80;27.95;;;;;;;-0.30;81.75;101865.72;10664809;27;20023;-85
2023/02/10 07:14:34;;;;;;;42.70;29.83;;;;;;;-0.37;83.65;101873.16;10665105;27;20031;-84
2023/02/10 07:19:36;;;;;;;43.72;28.27;;;;;;;-0.24;83.12;101872.84;10654458;27;20541;-82
2023/02/10 07:24:38;;;;;;;46.97;30.02;;;;;;;-0.10;82.86;101874.28;10645807;27;20065;-80
2023/02/10 07:29:42;;;;;;;47.58;30.95;;;;;;;-0.09;82.91;101893.25;10652221;27;20039;-82
2023/02/10 07:34:44;;;;;;;43.08;28.95;;;;;;;-0.10;82.81;101881.16;10631353;27;20058;-82
2023/02/10 07:39:47;;;;;;;46.95;30.20;;;;;;;0.00;82.41;101867.81;10614127;27;20039;-80
2023/02/10 07:44:49;;;;;;;48.47;30.17;;;;;;;0.01;82.21;101873.84;10635575;27;20053;-79
2023/02/10 07:49:53;;;;;;;44.40;30.25;;;;;;;0.08;81.92;101883.59;10652943;27;20074;-81
2023/02/10 07:54:56;;;;;;;40.65;28.92;;;;;;;0.17;81.67;101881.38;10657558;27;20121;-79
2023/02/10 07:59:58;;;;;;;53.67;30.75;;;;;;;0.22;81.94;101878.19;10643776;27;20031;-82
2023/02/10 08:05:00;;;;;;;46.22;30.23;;;;;;;0.25;81.80;101886.03;10661363;27;20030;-79
2023/02/10 08:10:02;;;;;;;49.78;32.13;;;;;;;0.21;82.65;101907.44;10643360;27;20043;-81
2023/02/10 08:15:06;;;;;;;48.25;30.52;;;;;;;0.41;81.53;101905.66;10631643;27;20118;-83
2023/02/10 08:20:08;;;;;;;56.17;32.53;;;;;;;0.44;81.18;101910.06;10650491;27;20039;-83
2023/02/10 08:25:10;;;;;;;56.50;31.92;;;;;;;0.58;80.63;101901.16;10648803;27;20059;-80
2023/02/10 08:30:12;;;;;;;55.47;32.45;;;;;;;0.46;81.82;101900.66;10629629;27;20043;-83
2023/02/10 08:35:14;;;;;;;57.47;33.75;;;;;;;0.63;81.11;101901.31;10628897;27;20407;-81
2023/02/10 08:40:16;;;;;;;61.67;33.00;;;;;;;0.52;82.85;101911.25;10628521;27;20040;-81
2023/02/10 08:45:18;;;;;;;63.00;34.05;;;;;;;0.63;83.34;101909.09;10625098;27;20165;-83
2023/02/10 08:50:20;;;;;;;62.88;35.15;;;;;;;0.81;83.06;101919.25;10625661;27;20089;-80
2023/02/10 08:55:22;;;;;;;74.97;40.08;;;;;;;0.94;82.44;101930.13;10628987;27;20146;-81
2023/02/10 09:00:24;;;;;;;84.90;42.78;;;;;;;0.72;85.05;101930.16;10625417;27;20051;-83
2023/02/10 09:05:26;;;;;;;69.40;38.70;;;;;;;0.88;83.48;101937.66;10623885;27;20423;-83
2023/02/10 09:10:28;;;;;;;76.38;36.92;;;;;;;0.95;82.40;101951.72;10645335;27;20049;-80
2023/02/10 09:15:30;;;;;;;68.95;35.97;;;;;;;0.89;83.21;101951.50;10634052;27;20047;-81
2023/02/10 09:20:32;;;;;;;73.43;39.28;;;;;;;1.04;82.23;101944.31;10636220;27;20111;-77
2023/02/10 09:25:34;;;;;;;71.70;37.90;;;;;;;1.24;80.53;101952.84;10651962;27;20118;-80
2023/02/10 09:30:35;;;;;;;74.43;39.22;;;;;;;1.05;82.37;101950.34;10655282;27;20043;-78
2023/02/10 09:35:37;;;;;;;68.93;35.63;;;;;;;1.11;80.65;101963.56;10658702;27;20047;-80
2023/02/10 09:41:01;;;;;;;68.75;37.30;;;;;;;1.27;80.20;101968.47;10657494;27;20034;-80
2023/02/10 09:46:32;;;;;;;77.95;40.25;;;;;;;1.23;81.48;101945.84;10641611;28;20075;-80
2023/02/10 09:51:42;;;;;;;78.63;39.25;;;;;;;1.31;80.95;101944.44;10634952;28;20152;-79
2023/02/10 09:56:44;;;;;;;93.68;45.50;;;;;;;1.49;79.68;101941.63;10664775;28;20039;-78
2023/02/10 10:01:56;;;;;;;73.53;37.47;;;;;;;1.43;79.94;101942.28;10662231;28;20099;-82
2023/02/10 10:07:25;;;;;;;63.65;36.35;;;;;;;1.54;80.16;101944.38;10650749;28;20039;-81
2023/02/10 10:12:27;;;;;;;71.20;36.97;;;;;;;1.46;81.04;101950.19;10676172;28;20046;-81
2023/02/10 10:17:56;;;;;;;75.80;39.72;;;;;;;1.51;81.61;101947.75;10659016;28;20031;-83
2023/02/10 10:23:19;;;;;;;72.22;36.20;;;;;;;1.64;81.62;101954.22;10659620;27;20034;-83
2023/02/10 10:29:00;;;;;;;74.60;36.17;;;;;;;1.61;82.67;101954.16;10646219;27;20098;-81
2023/02/10 10:34:15;;;;;;;72.97;35.90;;;;;;;1.52;83.37;101947.81;10649126;27;20095;-80
2023/02/10 10:39:31;;;;;;;64.97;33.75;;;;;;;1.51;83.52;101955.53;10664846;27;20039;-83
2023/02/10 10:44:35;;;;;;;68.30;34.25;;;;;;;1.59;83.69;101950.59;10665309;27;20068;-83
2023/02/10 10:49:39;;;;;;;69.67;35.83;;;;;;;1.49;85.10;101939.03;10649681;27;20034;-82
2023/02/10 10:54:41;;;;;;;75.43;38.55;;;;;;;1.56;84.77;101937.56;10665725;27;20052;-83
2023/02/10 10:59:53;;;;;;;78.10;39.08;;;;;;;1.60;84.63;101940.31;10665420;27;20043;-83
2023/02/10 11:05:11;;;;;;;75.35;39.25;;;;;;;1.72;83.44;101952.78;10665960;27;20019;-82
2023/02/10 11:10:24;;;;;;;77.47;38.83;;;;;;;1.78;83.50;101958.22;10682650;27;20050;-84
2023/02/10 11:15:33;;;;;;;71.45;37.35;;;;;;;1.75;83.53;101958.97;10634335;27;20050;-84
2023/02/10 11:20:36;;;;;;;71.90;38.75;;;;;;;1.67;83.97;101960.41;10625308;27;20489;-85
2023/02/10 11:25:38;;;;;;;69.55;36.05;;;;;;;1.55;84.01;101952.22;10628097;27;20023;-83
2023/02/10 11:30:40;;;;;;;61.83;34.63;;;;;;;1.71;83.14;101962.28;10640932;27;20059;-82
2023/02/10 11:35:48;;;;;;;60.25;33.15;;;;;;;1.80;81.13;101956.53;10654737;27;20047;-83
2023/02/10 11:41:04;;;;;;;64.53;34.92;;;;;;;1.83;80.78;101967.03;10641961;27;20488;-83
2023/02/10 11:46:17;;;;;;;63.17;35.67;;;;;;;1.59;83.35;101967.03;10620106;27;20071;-84
2023/02/10 11:51:24;;;;;;;64.07;34.05;;;;;;;1.76;81.99;101962.44;10620008;27;20035;-84
2023/02/10 12:02:28;;;;;;;74.60;38.15;;;;;;;2.08;80.39;101957.47;10648151;27;20043;-83
2023/02/10 12:08:04;;;;;;;73.90;38.08;;;;;;;1.88;81.90;101947.31;10629282;27;20039;-84
2023/02/10 12:13:14;;;;;;;60.47;34.45;;;;;;;1.97;81.53;101928.59;10645939;27;20069;-83
2023/02/10 12:18:27;;;;;;;66.78;34.00;;;;;;;2.11;81.28;101924.75;10628663;27;20062;-83
2023/02/10 12:23:42;;;;;;;66.90;34.13;;;;;;;2.49;79.52;101923.38;10625547;27;20043;-82
2023/02/10 12:28:59;;;;;;;64.85;34.90;;;;;;;2.99;77.15;101917.97;10646839;27;20038;-81
2023/02/10 12:34:22;;;;;;;66.20;34.63;;;;;;;3.13;77.62;101915.75;10671033;27;20031;-80
2023/02/10 12:40:01;;;;;;;63.95;33.50;;;;;;;3.28;76.15;101921.41;10659864;27;20019;-81
2023/02/10 12:45:42;;;;;;;56.83;32.08;;;;;;;3.19;75.12;101905.56;10658528;27;20087;-80
2023/02/10 12:50:50;;;;;;;52.97;31.70;;;;;;;3.24;74.85;101893.56;10630999;22;20039;-80
2023/02/10 12:55:59;;;;;;;;;;;;;;;3.28;75.26;101893.69;10583513;28;20048;-79
2023/02/10 13:01:12;;;;;;;51.47;29.48;;;;;;;3.14;74.60;101883.72;10583527;28;19923;-78
2023/02/10 13:06:23;;;;;;;52.80;30.00;;;;;;;3.08;74.76;101883.56;10579015;28;20074;-79
2023/02/10 13:11:43;;;;;;;64.13;30.25;;;;;;;2.89;76.21;101875.25;10582391;28;20055;-78
2023/02/10 13:16:52;;;;;;;54.33;30.58;;;;;;;2.83;76.63;101861.19;10580957;28;20044;-79
2023/02/10 13:22:13;;;;;;;51.60;29.58;;;;;;;2.84;77.09;101860.38;10602238;28;20032;-79
2023/02/10 13:27:21;;;;;;;50.85;28.30;;;;;;;2.87;76.65;101869.13;10580464;28;20047;-80
2023/02/10 13:32:42;;;;;;;51.22;28.75;;;;;;;3.02;75.46;101858.31;10581308;28;20035;-78
2023/02/10 13:37:50;;;;;;;53.72;28.38;;;;;;;3.01;76.61;101848.72;10598580;28;20052;-79
2023/02/10 13:43:01;;;;;;;35.65;24.08;;;;;;;3.22;75.50;101853.66;10583267;28;20040;-81
2023/02/10 13:48:08;;;;;;;36.05;24.95;;;;;;;3.28;74.67;101843.44;10589034;28;20043;-80
2023/02/10 13:53:37;;;;;;;;;;;;;;;3.34;74.69;101837.50;10589343;28;20067;-80
2023/02/10 13:59:04;;;;;;;38.00;23.05;;;;;;;3.29;74.20;101845.19;10592007;28;20342;-79
2023/02/10 14:04:26;;;;;;;30.65;20.60;;;;;;;3.32;74.42;101836.56;10606147;28;20099;-79
2023/02/10 14:09:28;;;;;;;31.50;19.02;;;;;;;3.37;73.17;101830.69;10641513;28;20052;-79
2023/02/10 14:14:37;;;;;;;27.02;17.63;;;;;;;3.43;73.25;101827.34;10624085;28;20027;-80
2023/02/10 14:19:41;;;;;;;26.90;18.20;;;;;;;3.36;73.84;101825.41;10636247;28;20074;-80
2023/02/10 14:24:44;;;;;;;21.23;17.95;;;;;;;3.31;74.52;101838.28;10589649;28;20057;-79
2023/02/10 14:29:54;;;;;;;24.08;17.42;;;;;;;3.41;73.25;101844.59;10611843;28;20045;-78
2023/02/10 14:34:57;;;;;;;22.90;17.48;;;;;;;3.34;73.80;101847.91;10609173;28;20046;-79
2023/02/10 14:40:03;;;;;;;31.55;16.95;;;;;;;3.26;73.94;101840.78;10609284;28;20039;-79
2023/02/10 14:45:05;;;;;;;23.70;18.13;;;;;;;3.40;74.00;101835.94;10609043;28;20472;-80
2023/02/10 14:50:08;;;;;;;26.73;18.50;;;;;;;3.31;74.05;101832.22;10577101;28;20051;-79
2023/02/10 14:55:24;;;;;;;23.98;18.23;;;;;;;3.46;73.28;101827.44;10612052;28;20139;-79
2023/02/10 15:00:26;;;;;;;30.25;17.92;;;;;;;3.35;73.99;101828.88;10611041;28;20042;-80
2023/02/10 15:05:34;;;;;;;26.02;16.27;;;;;;;3.48;72.85;101829.22;10608888;28;20044;-81
2023/02/10 15:10:43;;;;;;;25.85;17.08;;;;;;;3.36;74.37;101835.81;10590430;28;20036;-80
2023/02/10 15:15:51;;;;;;;20.92;16.05;;;;;;;3.41;73.88;101822.13;10591020;28;20036;-80
2023/02/10 15:20:58;;;;;;;27.90;18.05;;;;;;;3.37;74.15;101819.41;10608881;28;20042;-79
2023/02/10 15:26:18;;;;;;;24.13;17.13;;;;;;;3.45;73.44;101815.25;10606543;28;20442;-80
2023/02/10 15:31:27;;;;;;;35.15;17.80;;;;;;;3.41;73.35;101816.94;10596530;28;20047;-81
2023/02/10 15:36:32;;;;;;;21.65;16.98;;;;;;;3.34;73.97;101807.19;10600174;28;20152;-79
2023/02/10 15:41:57;;;;;;;27.75;18.42;;;;;;;3.30;73.90;101802.75;10603527;28;20039;-79
2023/02/10 15:47:20;;;;;;;25.00;18.30;;;;;;;3.38;73.02;101809.03;10604976;28;20040;-80
2023/02/10 15:52:24;;;;;;;23.10;19.00;;;;;;;3.26;73.92;101809.59;10584434;28;20054;-80
2023/02/10 15:57:26;;;;;;;36.33;20.65;;;;;;;3.22;73.88;101806.88;10606558;28;20040;-79
2023/02/10 16:02:29;;;;;;;34.78;20.35;;;;;;;3.11;74.50;101810.91;10571308;28;20507;-79
2023/02/10 16:07:30;;;;;;;33.53;21.05;;;;;;;2.94;75.47;101808.72;10584768;28;20146;-80
2023/02/10 16:12:32;;;;;;;35.72;22.75;;;;;;;2.96;75.32;101806.16;10588758;28;20085;-79
2023/02/10 16:17:40;;;;;;;25.58;20.25;;;;;;;3.02;74.82;101814.13;10606240;28;20046;-80
2023/02/10 16:22:42;;;;;;;29.30;21.30;;;;;;;2.99;74.63;101811.44;10604704;28;20469;-79
2023/02/10 16:27:44;;;;;;;37.97;22.98;;;;;;;2.92;75.05;101820.81;10604229;28;20055;-79
2023/02/10 16:32:46;;;;;;;31.15;22.95;;;;;;;2.99;74.31;101822.72;10590606;28;20043;-81
2023/02/10 16:37:48;;;;;;;31.92;23.17;;;;;;;3.00;74.54;101821.00;10606034;28;20080;-81
2023/02/10 16:42:50;;;;;;;32.88;23.75;;;;;;;2.65;76.58;101817.41;10604634;28;20047;-80
2023/02/10 16:47:53;;;;;;;38.35;24.58;;;;;;;2.51;77.34;101809.22;10601612;28;20480;-78
2023/02/10 16:52:55;;;;;;;38.58;24.73;;;;;;;2.30;77.88;101814.63;10602382;28;20051;-79
2023/02/10 16:57:57;;;;;;;38.72;26.80;;;;;;;2.21;78.62;101819.53;10614130;28;20553;-78
2023/02/10 17:02:59;;;;;;;40.55;25.60;;;;;;;2.00;79.26;101818.06;10603617;28;20520;-79
2023/02/10 17:08:01;;;;;;;34.55;26.20;;;;;;;1.77;80.30;101827.69;10599622;28;20054;-81
2023/02/10 17:13:03;;;;;;;42.08;26.67;;;;;;;1.86;80.80;101821.03;10578047;28;20066;-78
2023/02/10 17:18:05;;;;;;;42.22;28.00;;;;;;;1.84;80.79;101820.09;10615122;28;20071;-79
2023/02/10 17:23:07;;;;;;;52.67;29.83;;;;;;;1.63;81.66;101815.09;10602130;28;20093;-78
2023/02/10 17:28:09;;;;;;;49.70;29.85;;;;;;;1.63;81.95;101807.31;10586503;28;20043;-79
2023/02/10 17:33:27;;;;;;;57.03;31.17;;;;;;;1.52;82.08;101800.06;10601680;28;20051;-79
2023/02/10 17:38:48;;;;;;;57.40;30.80;;;;;;;1.45;83.15;101798.09;10585449;28;20035;-79
2023/02/10 17:43:51;;;;;;;52.38;29.33;;;;;;;1.34;83.56;101799.47;10583340;28;20451;-80
2023/02/10 17:48:53;;;;;;;44.08;28.42;;;;;;;1.18;84.43;101807.53;10600917;28;20119;-80
2023/02/10 17:53:55;;;;;;;44.63;26.45;;;;;;;1.31;84.28;101814.00;10568422;28;20059;-79
2023/02/10 17:58:57;;;;;;;39.97;26.80;;;;;;;1.21;84.37;101811.13;10603233;28;20039;-80
2023/02/10 18:03:59;;;;;;;39.58;26.40;;;;;;;1.24;84.40;101815.53;10585277;28;20044;-81
2023/02/10 18:09:01;;;;;;;44.83;27.13;;;;;;;1.24;84.89;101810.34;10566514;28;20150;-80
2023/02/10 18:14:02;;;;;;;44.92;26.73;;;;;;;1.32;83.48;101808.88;10601487;28;20044;-79
2023/02/10 18:19:04;;;;;;;42.85;27.25;;;;;;;1.34;83.44;101808.94;10593350;28;20050;-78
2023/02/10 18:24:07;;;;;;;43.83;26.65;;;;;;;1.34;83.76;101801.19;10573845;28;20073;-78
2023/02/10 18:29:10;;;;;;;47.05;27.90;;;;;;;1.35;83.34;101796.03;10599487;28;20552;-78
2023/02/10 18:34:11;;;;;;;44.08;26.63;;;;;;;1.25;83.89;101794.84;10593410;28;20092;-78
2023/02/10 18:39:13;;;;;;;40.78;28.50;;;;;;;1.21;84.19;101803.34;10586494;28;20091;-79
2023/02/10 18:44:15;;;;;;;35.72;25.85;;;;;;;1.35;82.83;101803.81;10610217;28;20046;-82
2023/02/10 18:49:17;;;;;;;37.85;24.35;;;;;;;1.40;82.33;101798.78;10639683;22;20126;-85
2023/02/10 18:54:20;;;;;;;41.08;26.95;;;;;;;1.42;82.30;101803.19;10665457;27;20039;-84
2023/02/10 18:59:25;;;;;;;32.60;25.70;;;;;;;1.47;80.96;101795.56;10665292;27;20062;-86
2023/02/10 19:04:31;;;;;;;36.95;24.95;;;;;;;1.30;81.66;101791.53;10623493;27;20047;-84
2023/02/10 19:09:33;;;;;;;30.17;24.08;;;;;;;1.33;80.83;101805.47;10649901;27;20124;-84
2023/02/10 19:14:40;;;;;;;31.92;23.95;;;;;;;1.37;79.80;101807.31;10630597;27;20111;-84
2023/02/10 19:19:42;;;;;;;24.80;21.92;;;;;;;1.41;79.69;101800.53;10627685;27;20051;-86
2023/02/10 19:24:44;;;;;;;34.95;22.55;;;;;;;1.31;79.63;101783.81;10626980;27;20047;-85
2023/02/10 19:29:46;;;;;;;28.17;21.40;;;;;;;1.39;78.78;101771.13;10629591;27;20039;-86
2023/02/10 19:34:48;;;;;;;29.67;21.65;;;;;;;1.48;77.34;101766.22;10628378;27;20049;-85
2023/02/10 19:39:50;;;;;;;26.35;21.77;;;;;;;1.58;76.92;101759.63;10637662;27;20047;-84
2023/02/10 19:44:52;;;;;;;27.75;20.17;;;;;;;1.74;75.39;101749.81;10638245;27;20054;-84
2023/02/10 19:49:56;;;;;;;22.00;19.67;;;;;;;1.60;75.66;101734.66;10637550;27;20421;-85
2023/02/10 19:54:58;;;;;;;24.45;20.67;;;;;;;1.41;76.37;101726.28;10633233;27;20051;-87
2023/02/10 20:00:01;;;;;;;23.63;18.20;;;;;;;1.44;76.49;101725.50;10630699;27;20050;-85
2023/02/10 20:05:12;;;;;;;19.38;17.65;;;;;;;1.44;75.53;101738.47;10632700;27;20047;-86
2023/02/10 20:10:13;;;;;;;20.13;18.10;;;;;;;1.27;76.57;101724.94;10630697;27;20043;-86
2023/02/10 20:15:16;;;;;;;21.38;18.73;;;;;;;1.24;76.23;101720.56;10633764;27;20119;-85
2023/02/10 20:20:23;;;;;;;19.00;17.27;;;;;;;1.21;75.89;101719.56;10620715;27;20089;-86
2023/02/10 20:25:25;;;;;;;19.25;17.45;;;;;;;1.33;74.96;101719.97;10631276;27;20074;-85
2023/02/10 20:30:27;;;;;;;20.65;18.55;;;;;;;1.33;74.55;101722.56;10628044;27;20035;-84
2023/02/10 20:35:30;;;;;;;20.55;18.40;;;;;;;1.33;74.79;101725.16;10626300;27;20553;-85
2023/02/10 20:40:31;;;;;;;22.98;18.80;;;;;;;1.26;74.55;101734.44;10609066;27;20069;-85
2023/02/10 20:45:33;;;;;;;21.33;19.15;;;;;;;1.28;74.42;101750.00;10644667;27;20042;-85
2023/02/10 20:50:35;;;;;;;23.00;19.65;;;;;;;1.26;74.26;101755.16;10622976;27;20437;-86
2023/02/10 20:55:37;;;;;;;25.52;20.80;;;;;;;1.22;74.67;101760.19;10625518;27;20475;-86
2023/02/10 21:00:39;;;;;;;26.15;21.75;;;;;;;1.15;74.71;101748.75;10625876;27;20404;-84
2023/02/10 21:05:41;;;;;;;33.28;23.30;;;;;;;1.18;74.63;101747.94;10609089;27;20457;-86
2023/02/10 21:10:46;;;;;;;31.15;23.88;;;;;;;1.28;74.19;101747.41;10612604;27;20076;-87
2023/02/10 21:15:51;;;;;;;33.53;24.67;;;;;;;1.20;74.71;101744.59;10642646;27;20053;-85
2023/02/10 21:21:01;;;;;;;36.40;25.25;;;;;;;1.27;74.33;101745.66;10625004;27;20035;-85
2023/02/10 21:26:04;;;;;;;38.05;26.50;;;;;;;1.31;73.83;101752.72;10607870;27;20552;-85
2023/02/10 21:31:11;;;;;;;44.13;27.13;;;;;;;1.35;73.63;101748.53;10624550;27;20039;-85
2023/02/10 21:36:23;;;;;;;44.78;27.20;;;;;;;1.25;74.58;101742.16;10627389;27;20103;-85
2023/02/10 21:41:40;;;;;;;40.03;28.05;;;;;;;1.25;74.95;101735.28;10610049;27;20208;-85
2023/02/10 21:46:46;;;;;;;51.30;29.05;;;;;;;1.35;74.22;101727.78;10625385;27;20054;-85
2023/02/10 21:51:49;;;;;;;47.80;28.83;;;;;;;1.28;75.00;101721.50;10625172;28;20154;-86
2023/02/10 21:56:51;;;;;;;52.08;28.80;;;;;;;1.39;74.12;101714.13;10627592;28;20054;-85
2023/02/10 22:01:54;;;;;;;53.40;30.45;;;;;;;1.45;74.11;101706.53;10633959;28;20039;-85
2023/02/10 22:06:56;;;;;;;43.17;28.02;;;;;;;1.52;72.91;101695.53;10625262;28;20048;-87
2023/02/10 22:11:58;;;;;;;45.05;27.25;;;;;;;1.34;74.50;101692.38;10620853;28;20588;-87
2023/02/10 22:17:00;;;;;;;48.50;29.67;;;;;;;1.33;74.03;101695.75;10621489;28;20055;-87
2023/02/10 22:22:01;;;;;;;47.28;26.88;;;;;;;1.42;73.83;101696.97;10629758;27;20123;-85
2023/02/10 22:27:04;;;;;;;42.45;27.40;;;;;;;1.27;75.28;101686.09;10648329;27;20075;-85
2023/02/10 22:32:06;;;;;;;48.13;28.38;;;;;;;1.41;74.31;101673.56;10631245;27;20074;-85
2023/02/10 22:37:07;;;;;;;43.85;27.90;;;;;;;1.54;73.68;101669.66;10630913;27;20495;-86
2023/02/10 22:42:09;;;;;;;38.92;27.20;;;;;;;1.43;74.47;101671.94;10632824;27;20440;-85
2023/02/10 22:47:12;;;;;;;41.33;26.83;;;;;;;1.55;74.28;101669.72;10636610;27;20054;-84
2023/02/10 22:52:14;;;;;;;38.92;25.27;;;;;;;1.57;74.00;101662.88;10635909;27;20043;-87
2023/02/10 22:57:16;;;;;;;33.30;24.50;;;;;;;1.76;72.89;101656.50;10636111;27;20047;-84
2023/02/10 23:02:19;;;;;;;38.97;25.63;;;;;;;1.70;72.97;101641.66;10620168;27;20043;-84
2023/02/10 23:07:20;;;;;;;32.78;23.05;;;;;;;1.90;71.88;101629.28;10633552;27;20411;-86
2023/02/10 23:12:22;;;;;;;37.35;24.15;;;;;;;1.74;72.49;101627.97;10651550;27;20047;-86